createdAt,value
2019-05-12T00:01:19.735Z,102526.27
2019-05-12T00:04:28.279Z,102528.78
2019-05-12T00:07:38.200Z,102528.11
2019-05-12T00:10:47.863Z,102531.03
2019-05-12T00:14:08.653Z,102537.48
2019-05-12T00:17:28.447Z,102547.69
2019-05-12T00:20:38.609Z,102558.77
2019-05-12T00:24:05.085Z,102558.39
2019-05-12T00:27:17.833Z,102553.56
2019-05-12T00:30:42.507Z,102550.80
2019-05-12T00:33:51.013Z,102549.88
2019-05-12T00:36:59.862Z,102549.56
2019-05-12T00:40:09.439Z,102551.66
2019-05-12T00:43:18.841Z,102560.64
2019-05-12T00:46:27.941Z,102567.85
2019-05-12T00:49:37.907Z,102579.31
2019-05-12T00:52:48.836Z,102584.38
2019-05-12T00:56:08.490Z,102577.34
2019-05-12T00:59:19.102Z,102589.58
2019-05-12T01:02:28.663Z,102589.58
2019-05-12T01:05:38.373Z,102597.11
2019-05-12T01:08:48.384Z,102605.11
2019-05-12T01:11:58.781Z,102612.20
2019-05-12T01:15:08.365Z,102611.83
2019-05-12T01:18:28.050Z,102617.34
2019-05-12T01:21:37.739Z,102619.30
2019-05-12T01:24:57.824Z,102622.44
2019-05-12T01:28:08.105Z,102623.95
2019-05-12T01:31:18.671Z,102630.95
2019-05-12T01:34:27.886Z,102631.94
2019-05-12T01:37:38.305Z,102640.37
2019-05-12T01:40:47.884Z,102651.99
2019-05-12T01:43:58.439Z,102645.51
2019-05-12T01:47:08.374Z,102654.75
2019-05-12T01:50:28.252Z,102657.65
2019-05-12T01:53:37.884Z,102665.62
2019-05-12T01:56:58.634Z,102672.32
2019-05-12T02:00:11.420Z,102685.67
2019-05-12T02:03:20.076Z,102681.98
2019-05-12T02:06:29.284Z,102680.17
2019-05-12T02:09:38.676Z,102684.45
2019-05-12T02:12:59.466Z,102687.42
2019-05-12T02:16:08.337Z,102691.09
2019-05-12T02:19:17.857Z,102697.70
2019-05-12T02:22:27.862Z,102695.73
2019-05-12T02:25:48.345Z,102699.14
2019-05-12T02:28:58.609Z,102710.86
2019-05-12T02:32:07.364Z,102709.91
2019-05-12T02:35:16.411Z,102716.62
2019-05-12T02:38:25.368Z,102709.41
2019-05-12T02:41:44.940Z,102715.02
2019-05-12T02:44:55.175Z,102720.44
2019-05-12T02:48:05.218Z,102726.15
2019-05-12T02:51:25.073Z,102721.27
2019-05-12T02:54:50.088Z,102729.95
2019-05-12T02:57:45.993Z,102732.89
2019-05-12T03:00:56.211Z,102734.84
2019-05-12T03:04:16.727Z,102731.29
2019-05-12T03:07:28.176Z,102734.85
2019-05-12T03:10:38.461Z,102746.44
2019-05-12T03:13:46.969Z,102741.91
2019-05-12T03:16:55.582Z,102750.10
2019-05-12T03:20:15.272Z,102756.95
2019-05-12T03:23:24.912Z,102752.55
2019-05-12T03:26:45.019Z,102753.66
2019-05-12T03:29:55.206Z,102755.48
2019-05-12T03:33:09.274Z,102758.42
2019-05-12T03:36:18.093Z,102755.73
2019-05-12T03:39:25.163Z,102766.71
2019-05-12T03:42:35.424Z,102772.48
2019-05-12T03:45:45.431Z,102776.62
2019-05-12T03:48:55.592Z,102782.25
2019-05-12T03:52:15.472Z,102786.14
2019-05-12T03:55:35.512Z,102781.51
2019-05-12T03:58:34.969Z,102783.59
2019-05-12T04:01:45.090Z,102796.19
2019-05-12T04:04:55.459Z,102797.39
2019-05-12T04:08:05.392Z,102792.02
2019-05-12T04:11:14.883Z,102797.77
2019-05-12T04:14:25.287Z,102803.28
2019-05-12T04:17:35.007Z,102802.30
2019-05-12T04:20:45.194Z,102813.05
2019-05-12T04:23:55.035Z,102819.16
2019-05-12T04:27:05.384Z,102828.95
2019-05-12T04:30:14.723Z,102832.48
2019-05-12T04:33:34.692Z,102841.77
2019-05-12T04:36:44.966Z,102842.88
2019-05-12T04:39:55.453Z,102848.40
2019-05-12T04:43:05.941Z,102852.55
2019-05-12T04:46:14.778Z,102858.30
2019-05-12T04:49:25.105Z,102858.41
2019-05-12T04:52:35.170Z,102860.00
2019-05-12T04:55:44.737Z,102863.06
2019-05-12T04:58:54.548Z,102867.22
2019-05-12T05:02:05.472Z,102870.14
2019-05-12T05:05:15.745Z,102877.96
2019-05-12T05:08:24.613Z,102881.39
2019-05-12T05:11:34.380Z,102893.50
2019-05-12T05:14:44.565Z,102892.38
2019-05-12T05:17:54.507Z,102897.27
2019-05-12T05:21:04.664Z,102895.63
2019-05-12T05:24:14.220Z,102895.71
2019-05-12T05:27:24.734Z,102900.53
2019-05-12T05:30:44.271Z,102896.55
2019-05-12T05:33:53.668Z,102910.11
2019-05-12T05:37:02.635Z,102911.17
2019-05-12T05:40:13.883Z,102905.89
2019-05-12T05:43:24.024Z,102910.15
2019-05-12T05:46:33.679Z,102918.91
2019-05-12T05:49:43.412Z,102920.72
2019-05-12T05:52:54.131Z,102920.36
2019-05-12T05:56:04.045Z,102935.42
2019-05-12T05:59:15.017Z,102934.50
2019-05-12T06:02:32.083Z,102939.52
2019-05-12T06:05:34.642Z,102939.54
2019-05-12T06:08:44.554Z,102947.19
2019-05-12T06:11:54.197Z,102954.41
2019-05-12T06:15:13.648Z,102953.51
2019-05-12T06:18:23.932Z,102958.89
2019-05-12T06:21:36.352Z,102959.82
2019-05-12T06:24:54.863Z,102957.66
2019-05-12T06:28:04.111Z,102969.91
2019-05-12T06:31:13.776Z,102971.34
2019-05-12T06:34:23.873Z,102975.20
2019-05-12T06:37:33.850Z,102984.94
2019-05-12T06:40:45.410Z,102986.63
2019-05-12T06:43:54.201Z,102992.77
2019-05-12T06:47:14.351Z,102985.61
2019-05-12T06:50:23.768Z,102991.98
2019-05-12T06:53:33.651Z,103005.33
2019-05-12T06:56:43.541Z,103005.54
2019-05-12T07:00:04.570Z,103016.22
2019-05-12T07:03:14.271Z,103025.31
2019-05-12T07:06:24.739Z,103031.97
2019-05-12T07:09:36.644Z,103034.83
2019-05-12T07:12:55.975Z,103030.64
2019-05-12T07:15:55.691Z,103037.59
2019-05-12T07:19:07.741Z,103044.08
2019-05-12T07:22:22.084Z,103045.22
2019-05-12T07:25:31.282Z,103048.91
2019-05-12T07:28:40.121Z,103053.47
2019-05-12T07:31:45.565Z,103055.55
2019-05-12T07:34:54.516Z,103061.74
2019-05-12T07:38:04.730Z,103066.84
2019-05-12T07:41:15.015Z,103067.29
2019-05-12T07:44:34.222Z,103060.95
2019-05-12T07:47:37.738Z,103065.80
2019-05-12T07:50:50.270Z,103060.67
2019-05-12T07:53:58.979Z,103078.11
2019-05-12T07:57:12.010Z,103065.94
2019-05-12T08:00:28.782Z,103056.02
2019-05-12T08:03:38.462Z,103059.55
2019-05-12T08:06:47.121Z,103067.66
2019-05-12T08:09:55.766Z,103068.17
2019-05-12T08:13:14.947Z,103071.34
2019-05-12T08:16:30.207Z,103075.31
2019-05-12T08:19:35.242Z,103076.72
2019-05-12T08:22:43.949Z,103088.44
2019-05-12T08:25:53.992Z,103077.33
2019-05-12T08:29:04.223Z,103078.42
2019-05-12T08:32:16.035Z,103090.35
2019-05-12T08:35:29.324Z,103089.89
2019-05-12T08:38:33.786Z,103098.41
2019-05-12T08:41:44.397Z,103090.33
2019-05-12T08:44:54.239Z,103085.01
2019-05-12T08:48:03.824Z,103091.23
2019-05-12T08:51:14.528Z,103095.39
2019-05-12T08:54:23.371Z,103097.07
2019-05-12T08:57:40.544Z,103111.74
2019-05-12T09:00:50.103Z,103106.56
2019-05-12T09:03:53.429Z,103113.22
2019-05-12T09:07:13.881Z,103111.31
2019-05-12T09:10:34.390Z,103105.49
2019-05-12T09:13:43.495Z,103113.63
2019-05-12T09:16:53.646Z,103124.26
2019-05-12T09:20:08.146Z,103116.77
2019-05-12T09:23:13.645Z,103114.28
2019-05-12T09:26:34.385Z,103115.68
2019-05-12T09:29:43.552Z,103120.42
2019-05-12T09:32:55.967Z,103131.34
2019-05-12T09:36:04.286Z,103124.73
2019-05-12T09:39:23.529Z,103134.48
2019-05-12T09:42:33.388Z,103135.62
2019-05-12T09:45:52.641Z,103134.64
2019-05-12T09:48:55.050Z,103137.70
2019-05-12T09:52:03.667Z,103140.84
2019-05-12T09:55:14.725Z,103142.89
2019-05-12T09:58:25.733Z,103149.34
2019-05-12T10:01:35.314Z,103152.07
2019-05-12T10:04:43.833Z,103159.00
2019-05-12T10:07:53.610Z,103154.60
2019-05-12T10:11:16.447Z,103158.73
2019-05-12T10:14:23.540Z,103160.80
2019-05-12T10:17:34.015Z,103158.95
2019-05-12T10:20:44.132Z,103163.78
2019-05-12T10:24:05.060Z,103161.63
2019-05-12T10:27:13.868Z,103156.55
2019-05-12T10:30:23.317Z,103158.59
2019-05-12T10:33:33.677Z,103155.05
2019-05-12T10:36:53.788Z,103163.38
2019-05-12T10:40:03.751Z,103164.08
2019-05-12T10:43:12.452Z,103170.72
2019-05-12T10:46:26.760Z,103175.48
2019-05-12T10:49:33.599Z,103173.96
2019-05-12T10:52:43.880Z,103175.82
2019-05-12T10:55:54.052Z,103165.06
2019-05-12T10:59:04.281Z,103173.09
2019-05-12T11:02:11.247Z,103179.56
2019-05-12T11:05:23.200Z,103167.64
2019-05-12T11:08:30.537Z,103172.77
2019-05-12T11:11:42.622Z,103182.30
2019-05-12T11:14:49.696Z,103184.36
2019-05-12T11:18:10.582Z,103186.23
2019-05-12T11:21:19.113Z,103187.95
2019-05-12T11:24:27.737Z,103191.00
2019-05-12T11:27:36.426Z,103193.55
2019-05-12T11:30:44.983Z,103193.21
2019-05-12T11:33:54.103Z,103202.59
2019-05-12T11:37:03.456Z,103200.39
2019-05-12T11:40:23.909Z,103198.10
2019-05-12T11:43:33.789Z,103211.92
2019-05-12T11:46:44.131Z,103210.93
2019-05-12T11:49:53.674Z,103211.62
2019-05-12T11:53:04.430Z,103219.82
2019-05-12T11:56:24.306Z,103223.50
2019-05-12T11:59:34.130Z,103227.19
2019-05-12T12:02:53.083Z,103230.50
2019-05-12T12:06:01.459Z,103238.20
2019-05-12T12:09:15.509Z,103238.70
2019-05-12T12:12:20.536Z,103237.22
2019-05-12T12:15:30.304Z,103235.74
2019-05-12T12:18:54.565Z,103245.71
2019-05-12T12:21:59.562Z,103244.63
2019-05-12T12:25:11.064Z,103261.13
2019-05-12T12:28:18.611Z,103256.73
2019-05-12T12:31:29.756Z,103256.25
2019-05-12T12:34:39.105Z,103262.20
2019-05-12T12:37:47.757Z,103268.04
2019-05-12T12:40:56.557Z,103267.09
2019-05-12T12:44:05.314Z,103272.30
2019-05-12T12:47:14.086Z,103270.81
2019-05-12T12:50:26.485Z,103283.28
2019-05-12T12:53:34.395Z,103276.78
2019-05-12T12:56:53.921Z,103278.30
2019-05-12T13:00:03.819Z,103285.00
2019-05-12T13:03:27.721Z,103291.89
2019-05-12T13:06:34.598Z,103295.20
2019-05-12T13:09:44.120Z,103305.78
2019-05-12T13:13:04.323Z,103297.13
2019-05-12T13:16:13.361Z,103295.86
2019-05-12T13:19:23.771Z,103300.78
2019-05-12T13:22:33.717Z,103295.69
2019-05-12T13:25:50.433Z,103314.19
2019-05-12T13:28:53.588Z,103301.65
2019-05-12T13:32:03.434Z,103310.36
2019-05-12T13:35:16.540Z,103303.69
2019-05-12T13:38:23.765Z,103307.03
2019-05-12T13:41:34.213Z,103319.54
2019-05-12T13:44:43.632Z,103313.78
2019-05-12T13:47:53.379Z,103317.83
2019-05-12T13:51:10.403Z,103318.44
2019-05-12T13:54:14.384Z,103314.20
2019-05-12T13:57:23.651Z,103319.28
2019-05-12T14:00:33.639Z,103314.51
2019-05-12T14:03:46.277Z,103322.91
2019-05-12T14:06:53.292Z,103339.70
2019-05-12T14:10:03.641Z,103333.70
2019-05-12T14:13:14.084Z,103343.28
2019-05-12T14:16:24.775Z,103352.19
2019-05-12T14:19:35.557Z,103335.81
2019-05-12T14:22:44.728Z,103345.37
2019-05-12T14:25:54.386Z,103346.91
2019-05-12T14:29:03.951Z,103357.32
2019-05-12T14:32:17.484Z,103357.83
2019-05-12T14:35:23.280Z,103356.13
2019-05-12T14:38:36.419Z,103362.78
2019-05-12T14:41:55.210Z,103355.61
2019-05-12T14:45:04.716Z,103360.56
2019-05-12T14:48:13.833Z,103361.25
2019-05-12T14:51:24.573Z,103371.13
2019-05-12T14:54:34.310Z,103365.66
2019-05-12T14:57:43.073Z,103366.86
2019-05-12T15:00:56.435Z,103377.69
2019-05-12T15:04:13.288Z,103381.84
2019-05-12T15:07:23.667Z,103370.66
2019-05-12T15:10:33.784Z,103372.03
2019-05-12T15:13:43.684Z,103373.44
2019-05-12T15:17:03.707Z,103375.94
2019-05-12T15:20:13.769Z,103384.11
2019-05-12T15:23:25.875Z,103384.25
2019-05-12T15:26:33.148Z,103387.29
2019-05-12T15:29:41.742Z,103389.33
2019-05-12T15:32:50.274Z,103390.02
2019-05-12T15:36:09.141Z,103388.49
2019-05-12T15:39:17.747Z,103388.47
2019-05-12T15:42:26.355Z,103390.72
2019-05-12T15:45:34.951Z,103395.84
2019-05-12T15:48:44.603Z,103393.95
2019-05-12T15:52:03.750Z,103396.00
2019-05-12T15:55:13.738Z,103396.23
2019-05-12T15:58:24.552Z,103403.78
2019-05-12T16:01:33.458Z,103407.20
2019-05-12T16:04:43.078Z,103405.14
2019-05-12T16:07:54.028Z,103418.27
2019-05-12T16:11:05.007Z,103414.73
2019-05-12T16:14:13.024Z,103415.70
2019-05-12T16:17:25.026Z,103432.41
2019-05-12T16:20:33.433Z,103427.03
2019-05-12T16:23:44.542Z,103425.71
2019-05-12T16:26:53.215Z,103424.78
2019-05-12T16:30:04.563Z,103436.59
2019-05-12T16:33:20.485Z,103446.64
2019-05-12T16:36:22.560Z,103437.27
2019-05-12T16:39:37.013Z,103444.77
2019-05-12T16:42:48.145Z,103443.66
2019-05-12T16:45:53.619Z,103452.69
2019-05-12T16:49:03.358Z,103457.28
2019-05-12T16:52:24.254Z,103459.42
2019-05-12T16:55:44.834Z,103462.50
2019-05-12T16:58:43.385Z,103468.34
2019-05-12T17:02:05.528Z,103466.33
2019-05-12T17:05:24.817Z,103469.09
2019-05-12T17:08:34.414Z,103464.98
2019-05-12T17:11:52.451Z,103470.58
2019-05-12T17:14:53.556Z,103474.39
2019-05-12T17:18:04.427Z,103473.41
2019-05-12T17:21:14.356Z,103478.64
2019-05-12T17:24:34.431Z,103476.58
2019-05-12T17:27:44.771Z,103479.20
2019-05-12T17:30:54.334Z,103485.44
2019-05-12T17:34:06.369Z,103493.59
2019-05-12T17:37:14.637Z,103496.59
2019-05-12T17:40:24.325Z,103497.44
2019-05-12T17:43:33.838Z,103510.03
2019-05-12T17:46:54.081Z,103509.31
2019-05-12T17:50:06.773Z,103512.73
2019-05-12T17:53:13.812Z,103519.89
2019-05-12T17:56:25.283Z,103529.20
2019-05-12T17:59:33.919Z,103531.70
2019-05-12T18:02:43.902Z,103527.00
2019-05-12T18:05:53.473Z,103535.80
2019-05-12T18:09:04.026Z,103539.45
2019-05-12T18:12:13.852Z,103538.70
2019-05-12T18:15:32.203Z,103550.62
2019-05-12T18:18:38.011Z,103559.09
2019-05-12T18:21:45.089Z,103557.16
2019-05-12T18:24:54.301Z,103564.50
2019-05-12T18:28:03.781Z,103563.73
2019-05-12T18:31:25.189Z,103573.93
2019-05-12T18:34:34.006Z,103570.72
2019-05-12T18:37:42.853Z,103577.77
2019-05-12T18:40:51.393Z,103570.56
2019-05-12T18:43:58.998Z,103572.45
2019-05-12T18:47:07.538Z,103577.09
2019-05-12T18:50:20.632Z,103576.19
2019-05-12T18:53:31.535Z,103582.72
2019-05-12T18:56:37.143Z,103590.72
2019-05-12T18:59:54.332Z,103593.06
2019-05-12T19:02:59.625Z,103594.84
2019-05-12T19:06:16.371Z,103593.13
2019-05-12T19:09:25.135Z,103597.27
2019-05-12T19:12:35.666Z,103604.57
2019-05-12T19:15:44.182Z,103605.02
2019-05-12T19:18:55.402Z,103609.37
2019-05-12T19:22:09.082Z,103606.38
2019-05-12T19:25:19.161Z,103613.16
2019-05-12T19:28:26.750Z,103617.50
2019-05-12T19:31:36.683Z,103624.70
2019-05-12T19:34:56.015Z,103625.94
2019-05-12T19:38:04.597Z,103640.89
2019-05-12T19:41:13.967Z,103644.49
2019-05-12T19:44:34.284Z,103647.70
2019-05-12T19:47:44.291Z,103646.22
2019-05-12T19:50:56.965Z,103652.99
2019-05-12T19:54:03.710Z,103654.22
2019-05-12T19:57:21.650Z,103647.88
2019-05-12T20:00:22.473Z,103648.89
2019-05-12T20:03:33.370Z,103650.09
2019-05-12T20:06:43.817Z,103653.06
2019-05-12T20:09:55.842Z,103645.34
2019-05-12T20:13:13.638Z,103648.44
2019-05-12T20:16:29.742Z,103658.28
2019-05-12T20:19:34.089Z,103662.34
2019-05-12T20:22:44.134Z,103662.93
2019-05-12T20:25:53.518Z,103666.64
2019-05-12T20:29:04.601Z,103669.19
2019-05-12T20:32:13.961Z,103665.66
2019-05-12T20:35:24.497Z,103670.56
2019-05-12T20:38:34.410Z,103677.06
2019-05-12T20:41:44.300Z,103682.95
2019-05-12T20:44:57.990Z,103676.20
2019-05-12T20:48:04.111Z,103687.45
2019-05-12T20:51:15.316Z,103690.03
2019-05-12T20:54:23.905Z,103691.35
2019-05-12T20:57:34.543Z,103689.89
2019-05-12T21:00:45.420Z,103699.23
2019-05-12T21:03:53.188Z,103703.88
2019-05-12T21:07:04.392Z,103700.77
2019-05-12T21:10:14.398Z,103705.38
2019-05-12T21:13:27.366Z,103706.58
2019-05-12T21:16:44.920Z,103707.32
2019-05-12T21:19:56.835Z,103704.23
2019-05-12T21:23:03.483Z,103703.01
2019-05-12T21:26:12.018Z,103713.52
2019-05-12T21:29:25.541Z,103711.59
2019-05-12T21:32:31.017Z,103716.72
2019-05-12T21:35:43.141Z,103715.58
2019-05-12T21:38:50.063Z,103720.60
2019-05-12T21:41:58.712Z,103721.58
2019-05-12T21:45:08.552Z,103721.02
2019-05-12T21:48:23.610Z,103726.89
2019-05-12T21:51:27.614Z,103730.59
2019-05-12T21:54:39.566Z,103732.97
2019-05-12T21:57:46.636Z,103736.31
2019-05-12T22:01:04.235Z,103748.64
2019-05-12T22:04:19.809Z,103745.73
2019-05-12T22:07:29.502Z,103753.36
2019-05-12T22:10:38.906Z,103761.23
2019-05-12T22:13:56.201Z,103762.48
2019-05-12T22:17:09.123Z,103752.20
2019-05-12T22:20:29.133Z,103754.31
2019-05-12T22:23:44.564Z,103760.38
2019-05-12T22:26:47.951Z,103763.73
2019-05-12T22:29:56.651Z,103767.47
2019-05-12T22:33:10.427Z,103768.81
2019-05-12T22:36:29.801Z,103773.11
2019-05-12T22:39:36.405Z,103776.03
2019-05-12T22:42:59.365Z,103774.02
2019-05-12T22:46:05.605Z,103773.34
2019-05-12T22:49:16.895Z,103780.15
2019-05-12T22:52:23.877Z,103785.02
2019-05-12T22:55:35.798Z,103787.30
2019-05-12T22:59:00.159Z,103785.47
2019-05-12T23:02:04.446Z,103790.79
2019-05-12T23:05:19.049Z,103785.24
2019-05-12T23:08:24.641Z,103779.75
2019-05-12T23:11:37.686Z,103786.97
2019-05-12T23:15:02.692Z,103785.06
2019-05-12T23:18:05.020Z,103786.05
2019-05-12T23:21:17.588Z,103790.71
2019-05-12T23:24:24.397Z,103797.78
2019-05-12T23:27:33.440Z,103794.71
2019-05-12T23:30:48.428Z,103794.77
2019-05-12T23:33:54.504Z,103787.94
2019-05-12T23:37:04.011Z,103797.08
2019-05-12T23:40:23.573Z,103793.50
2019-05-12T23:43:34.097Z,103791.83
2019-05-12T23:46:43.768Z,103792.55
2019-05-12T23:49:53.196Z,103788.69
2019-05-12T23:53:03.779Z,103787.21
2019-05-12T23:56:22.224Z,103785.00
2019-05-12T23:59:33.265Z,103779.08
